KQA793 FACT-FVFA
Flight info
| Callsign | KQA793 |
|---|---|
| Flight time | 2h 24m |
| Altitude | 35000 |
| Route | KODES UZ30 UPV UT916 BONAL |
| Aircraft | B738/M-SDE2E3FGHIRWXY/LB1 |
Departure
| Time | 2026-05-06 09:47 |
|---|---|
| Airport | Cape Town International Airport (FACT) |
Arrival
| Time | 2026-05-06 12:12 |
|---|---|
| Airport | Victoria Falls International Airport (FVFA) |
| Time | Latitude | Longitude | Altitude | Speed | Heading |
|---|---|---|---|---|---|
| 2026-05-06 09:33 | -33.96836 | 18.59767 | 156 ft | 0 kts | 256° |
| 2026-05-06 09:39 | -33.96829 | 18.59790 | 156 ft | 4 kts | 241° |
| 2026-05-06 09:40 | -33.96815 | 18.59818 | 156 ft | 4 kts | 242° |
| 2026-05-06 09:40 | -33.96809 | 18.59847 | 156 ft | 4 kts | 271° |
| 2026-05-06 09:40 | -33.96836 | 18.59879 | 156 ft | 3 kts | 345° |
| 2026-05-06 09:41 | -33.96838 | 18.59880 | 156 ft | 0 kts | 345° |
| 2026-05-06 09:44 | -33.96828 | 18.59876 | 156 ft | 6 kts | 345° |
| 2026-05-06 09:45 | -33.96751 | 18.59852 | 156 ft | 16 kts | 345° |
| 2026-05-06 09:45 | -33.96642 | 18.59818 | 156 ft | 16 kts | 347° |
| 2026-05-06 09:45 | -33.96538 | 18.59787 | 156 ft | 15 kts | 347° |
| 2026-05-06 09:45 | -33.96436 | 18.59763 | 156 ft | 15 kts | 348° |
| 2026-05-06 09:46 | -33.96334 | 18.59743 | 156 ft | 15 kts | 351° |
| 2026-05-06 09:46 | -33.96224 | 18.59735 | 155 ft | 16 kts | 26° |
| 2026-05-06 09:46 | -33.96140 | 18.59830 | 154 ft | 16 kts | 43° |
| 2026-05-06 09:46 | -33.96063 | 18.59927 | 153 ft | 16 kts | 45° |
| 2026-05-06 09:47 | -33.96061 | 18.60032 | 153 ft | 15 kts | 153° |
| 2026-05-06 09:47 | -33.96318 | 18.60118 | 152 ft | 81 kts | 167° |
| 2026-05-06 09:47 | -33.97147 | 18.60374 | 160 ft | 163 kts | 165° |
| 2026-05-06 09:47 | -33.98361 | 18.60789 | 860 ft | 183 kts | 160° |
| 2026-05-06 09:48 | -33.99564 | 18.61226 | 2204 ft | 179 kts | 163° |
| 2026-05-06 09:48 | -34.00841 | 18.61688 | 2799 ft | 207 kts | 163° |
| 2026-05-06 09:48 | -34.02278 | 18.62084 | 3392 ft | 215 kts | 165° |
| 2026-05-06 09:48 | -34.03759 | 18.62437 | 4055 ft | 220 kts | 166° |
| 2026-05-06 09:49 | -34.05343 | 18.62806 | 4511 ft | 239 kts | 163° |
| 2026-05-06 09:49 | -34.06729 | 18.63873 | 5312 ft | 243 kts | 127° |
| 2026-05-06 09:49 | -34.07366 | 18.65774 | 6268 ft | 253 kts | 103° |
| 2026-05-06 09:49 | -34.07351 | 18.67937 | 7237 ft | 263 kts | 82° |
| 2026-05-06 09:50 | -34.06604 | 18.69981 | 8226 ft | 277 kts | 59° |
| 2026-05-06 09:50 | -34.05123 | 18.71558 | 9016 ft | 295 kts | 33° |
| 2026-05-06 09:50 | -34.03144 | 18.72368 | 9826 ft | 307 kts | 12° |
| 2026-05-06 09:50 | -34.00992 | 18.72589 | 10537 ft | 317 kts | 5° |
| 2026-05-06 09:51 | -33.98702 | 18.72633 | 10760 ft | 342 kts | 3° |
| 2026-05-06 09:51 | -33.96270 | 18.72634 | 11255 ft | 354 kts | 2° |
| 2026-05-06 09:51 | -33.93786 | 18.72644 | 11993 ft | 359 kts | 3° |
| 2026-05-06 09:51 | -33.91283 | 18.72678 | 12817 ft | 361 kts | 3° |
| 2026-05-06 09:52 | -33.88753 | 18.72736 | 13624 ft | 365 kts | 4° |
| 2026-05-06 09:52 | -33.86197 | 18.72812 | 14321 ft | 370 kts | 4° |
| 2026-05-06 09:52 | -33.83650 | 18.72900 | 15017 ft | 372 kts | 4° |
| 2026-05-06 09:52 | -33.81021 | 18.72998 | 15742 ft | 374 kts | 4° |
| 2026-05-06 09:53 | -33.78439 | 18.73097 | 16432 ft | 377 kts | 4° |
| 2026-05-06 09:53 | -33.75803 | 18.73200 | 17121 ft | 380 kts | 3° |
| 2026-05-06 09:53 | -33.73149 | 18.73305 | 17821 ft | 383 kts | 3° |
| 2026-05-06 09:53 | -33.70468 | 18.73411 | 18487 ft | 386 kts | 3° |
| 2026-05-06 09:54 | -33.67773 | 18.73517 | 19091 ft | 388 kts | 3° |
| 2026-05-06 09:54 | -33.65067 | 18.73624 | 19727 ft | 390 kts | 3° |
| 2026-05-06 09:54 | -33.62356 | 18.73730 | 20360 ft | 391 kts | 3° |
| 2026-05-06 09:54 | -33.59627 | 18.73837 | 21015 ft | 393 kts | 3° |
| 2026-05-06 09:55 | -33.56891 | 18.73944 | 21662 ft | 395 kts | 3° |
| 2026-05-06 09:55 | -33.54136 | 18.74052 | 22247 ft | 397 kts | 3° |
| 2026-05-06 09:55 | -33.51362 | 18.74161 | 22813 ft | 400 kts | 3° |
| 2026-05-06 09:55 | -33.48568 | 18.74270 | 23365 ft | 402 kts | 3° |
| 2026-05-06 09:56 | -33.45764 | 18.74380 | 23881 ft | 405 kts | 3° |
| 2026-05-06 09:56 | -33.42943 | 18.74490 | 24337 ft | 407 kts | 3° |
| 2026-05-06 09:56 | -33.40106 | 18.74601 | 24778 ft | 409 kts | 3° |
| 2026-05-06 09:56 | -33.37246 | 18.74712 | 25206 ft | 412 kts | 3° |
| 2026-05-06 09:57 | -33.34373 | 18.74824 | 25634 ft | 414 kts | 3° |
| 2026-05-06 09:57 | -33.31486 | 18.74937 | 26063 ft | 416 kts | 2° |
| 2026-05-06 09:57 | -33.28580 | 18.75050 | 26473 ft | 419 kts | 2° |
| 2026-05-06 09:57 | -33.25661 | 18.75163 | 26878 ft | 421 kts | 2° |
| 2026-05-06 09:58 | -33.22724 | 18.75277 | 27281 ft | 423 kts | 2° |
| 2026-05-06 09:58 | -33.19770 | 18.75392 | 27670 ft | 426 kts | 2° |
| 2026-05-06 09:58 | -33.16805 | 18.75543 | 28049 ft | 428 kts | 6° |
| 2026-05-06 09:58 | -33.13870 | 18.76152 | 28413 ft | 429 kts | 15° |
| 2026-05-06 09:59 | -33.11050 | 18.77317 | 28789 ft | 430 kts | 25° |
| 2026-05-06 09:59 | -33.08361 | 18.78797 | 29183 ft | 431 kts | 26° |
| 2026-05-06 09:59 | -33.05647 | 18.80345 | 29528 ft | 434 kts | 26° |
| 2026-05-06 09:59 | -33.02922 | 18.81908 | 29876 ft | 436 kts | 26° |
| 2026-05-06 10:00 | -33.00181 | 18.83470 | 30227 ft | 438 kts | 26° |
| 2026-05-06 10:00 | -32.97420 | 18.85029 | 30518 ft | 439 kts | 26° |
| 2026-05-06 10:00 | -32.94648 | 18.86581 | 30789 ft | 441 kts | 26° |
| 2026-05-06 10:00 | -32.91862 | 18.88131 | 31059 ft | 443 kts | 26° |
| 2026-05-06 10:01 | -32.89056 | 18.89688 | 31308 ft | 446 kts | 26° |
| 2026-05-06 10:01 | -32.86238 | 18.91248 | 31571 ft | 448 kts | 26° |
| 2026-05-06 10:01 | -32.83402 | 18.92816 | 31817 ft | 450 kts | 26° |
| 2026-05-06 10:01 | -32.80559 | 18.94388 | 32032 ft | 452 kts | 26° |
| 2026-05-06 10:02 | -32.77701 | 18.95967 | 32292 ft | 453 kts | 26° |
| 2026-05-06 10:02 | -32.74839 | 18.97547 | 32612 ft | 453 kts | 26° |
| 2026-05-06 10:02 | -32.71983 | 18.99122 | 32939 ft | 452 kts | 26° |
| 2026-05-06 10:02 | -32.69129 | 19.00696 | 33222 ft | 453 kts | 26° |
| 2026-05-06 10:03 | -32.66271 | 19.02272 | 33493 ft | 453 kts | 26° |
| 2026-05-06 10:03 | -32.63410 | 19.03847 | 33792 ft | 453 kts | 25° |
| 2026-05-06 10:03 | -32.60548 | 19.05423 | 34062 ft | 454 kts | 25° |
| 2026-05-06 10:03 | -32.57686 | 19.06997 | 34282 ft | 454 kts | 25° |
| 2026-05-06 10:04 | -32.54808 | 19.08578 | 34427 ft | 457 kts | 25° |
| 2026-05-06 10:04 | -32.52892 | 19.09631 | 34512 ft | 459 kts | 25° |
| 2026-05-06 10:04 | -32.49987 | 19.11226 | 34666 ft | 461 kts | 25° |
| 2026-05-06 10:04 | -32.46079 | 19.13370 | 34883 ft | 464 kts | 25° |
| 2026-05-06 10:05 | -32.43151 | 19.14975 | 35103 ft | 464 kts | 25° |
| 2026-05-06 10:05 | -32.40306 | 19.16533 | 35272 ft | 466 kts | 25° |
| 2026-05-06 10:05 | -32.37398 | 19.18124 | 35435 ft | 468 kts | 25° |
| 2026-05-06 10:05 | -32.34435 | 19.19745 | 35559 ft | 470 kts | 25° |
| 2026-05-06 10:06 | -32.31461 | 19.21371 | 35710 ft | 472 kts | 25° |
| 2026-05-06 10:06 | -32.28479 | 19.23000 | 35896 ft | 473 kts | 24° |
| 2026-05-06 10:06 | -32.25491 | 19.24631 | 36101 ft | 473 kts | 24° |
| 2026-05-06 10:06 | -32.22501 | 19.26262 | 36291 ft | 474 kts | 24° |
| 2026-05-06 10:07 | -32.19505 | 19.27895 | 36444 ft | 475 kts | 24° |
| 2026-05-06 10:07 | -32.16497 | 19.29535 | 36584 ft | 477 kts | 24° |
| 2026-05-06 10:07 | -32.13476 | 19.31182 | 36729 ft | 478 kts | 24° |
| 2026-05-06 10:07 | -32.11475 | 19.32272 | 36838 ft | 479 kts | 24° |
| 2026-05-06 10:08 | -32.08447 | 19.33921 | 36993 ft | 480 kts | 24° |
| 2026-05-06 10:08 | -32.05411 | 19.35573 | 37117 ft | 482 kts | 24° |
| 2026-05-06 10:08 | -32.02363 | 19.37230 | 37277 ft | 483 kts | 24° |
| 2026-05-06 10:08 | -31.99306 | 19.38891 | 37427 ft | 484 kts | 24° |
| 2026-05-06 10:09 | -31.96245 | 19.40553 | 37568 ft | 485 kts | 24° |
| 2026-05-06 10:09 | -31.93174 | 19.42218 | 37694 ft | 487 kts | 24° |
| 2026-05-06 10:09 | -31.90096 | 19.43887 | 37841 ft | 488 kts | 24° |
| 2026-05-06 10:09 | -31.87008 | 19.45560 | 38001 ft | 488 kts | 24° |
| 2026-05-06 10:10 | -31.83917 | 19.47233 | 38123 ft | 490 kts | 23° |
| 2026-05-06 10:10 | -31.80820 | 19.48908 | 38237 ft | 491 kts | 23° |
| 2026-05-06 10:10 | -31.77715 | 19.50586 | 38374 ft | 492 kts | 23° |
| 2026-05-06 10:10 | -31.74600 | 19.52268 | 38517 ft | 493 kts | 23° |
| 2026-05-06 10:11 | -31.71483 | 19.53951 | 38644 ft | 494 kts | 23° |
| 2026-05-06 10:11 | -31.68355 | 19.55638 | 38750 ft | 495 kts | 23° |
| 2026-05-06 10:11 | -31.65223 | 19.57325 | 38902 ft | 495 kts | 23° |
| 2026-05-06 10:11 | -31.62101 | 19.59007 | 39071 ft | 492 kts | 22° |
| 2026-05-06 10:12 | -31.55858 | 19.62365 | 39099 ft | 495 kts | 22° |
| 2026-05-06 10:12 | -31.49586 | 19.65733 | 39105 ft | 496 kts | 22° |
| 2026-05-06 10:13 | -31.43305 | 19.69102 | 39099 ft | 496 kts | 22° |
| 2026-05-06 10:13 | -31.37026 | 19.72464 | 39100 ft | 496 kts | 22° |
| 2026-05-06 10:14 | -31.30788 | 19.75800 | 39097 ft | 496 kts | 22° |
| 2026-05-06 10:14 | -31.24519 | 19.79147 | 39095 ft | 495 kts | 22° |
| 2026-05-06 10:15 | -31.18254 | 19.82487 | 39092 ft | 494 kts | 22° |
| 2026-05-06 10:15 | -31.12006 | 19.85814 | 39099 ft | 493 kts | 22° |
| 2026-05-06 10:16 | -31.05768 | 19.89129 | 39093 ft | 492 kts | 22° |
| 2026-05-06 10:16 | -30.99539 | 19.92436 | 39088 ft | 491 kts | 22° |
| 2026-05-06 10:17 | -30.93321 | 19.95732 | 39090 ft | 490 kts | 21° |
| 2026-05-06 10:17 | -30.87118 | 19.99016 | 39090 ft | 489 kts | 21° |
| 2026-05-06 10:18 | -30.80924 | 20.02290 | 39088 ft | 489 kts | 21° |
| 2026-05-06 10:18 | -30.74737 | 20.05555 | 39095 ft | 488 kts | 21° |
| 2026-05-06 10:19 | -30.68552 | 20.08815 | 39085 ft | 488 kts | 21° |
| 2026-05-06 10:19 | -30.62372 | 20.12068 | 39090 ft | 488 kts | 21° |
| 2026-05-06 10:20 | -30.56190 | 20.15319 | 39086 ft | 488 kts | 21° |
| 2026-05-06 10:20 | -30.50004 | 20.18564 | 39088 ft | 488 kts | 21° |
| 2026-05-06 10:21 | -30.43818 | 20.21800 | 39084 ft | 488 kts | 21° |
| 2026-05-06 10:21 | -30.37636 | 20.25031 | 39089 ft | 488 kts | 20° |
| 2026-05-06 10:22 | -30.31447 | 20.28262 | 39085 ft | 488 kts | 20° |
| 2026-05-06 10:22 | -30.25294 | 20.31471 | 39083 ft | 487 kts | 20° |
| 2026-05-06 10:23 | -30.19110 | 20.34691 | 39081 ft | 487 kts | 20° |
| 2026-05-06 10:23 | -30.12937 | 20.37901 | 39085 ft | 486 kts | 20° |
| 2026-05-06 10:24 | -30.06758 | 20.41110 | 39085 ft | 486 kts | 20° |
| 2026-05-06 10:24 | -30.00598 | 20.44304 | 39082 ft | 485 kts | 20° |
| 2026-05-06 10:25 | -29.94451 | 20.47488 | 39081 ft | 484 kts | 20° |
| 2026-05-06 10:25 | -29.88355 | 20.50641 | 39081 ft | 483 kts | 20° |
| 2026-05-06 10:26 | -29.82226 | 20.53806 | 39079 ft | 482 kts | 19° |
| 2026-05-06 10:26 | -29.76112 | 20.56959 | 39085 ft | 481 kts | 19° |
| 2026-05-06 10:27 | -29.70014 | 20.60100 | 39085 ft | 480 kts | 19° |
| 2026-05-06 10:27 | -29.63922 | 20.63234 | 39087 ft | 479 kts | 19° |
| 2026-05-06 10:28 | -29.57848 | 20.66354 | 39086 ft | 478 kts | 19° |
| 2026-05-06 10:28 | -29.51784 | 20.69465 | 39091 ft | 477 kts | 19° |
| 2026-05-06 10:29 | -29.45730 | 20.72567 | 39092 ft | 476 kts | 19° |
| 2026-05-06 10:29 | -29.39692 | 20.75657 | 39095 ft | 475 kts | 18° |
| 2026-05-06 10:30 | -29.33658 | 20.78740 | 39096 ft | 474 kts | 18° |
| 2026-05-06 10:30 | -29.27632 | 20.81815 | 38966 ft | 475 kts | 19° |
| 2026-05-06 10:31 | -29.21578 | 20.84899 | 39062 ft | 477 kts | 19° |
| 2026-05-06 10:31 | -29.15494 | 20.87995 | 39116 ft | 481 kts | 19° |
| 2026-05-06 10:32 | -29.09340 | 20.91122 | 39128 ft | 486 kts | 19° |
| 2026-05-06 10:32 | -29.03121 | 20.94279 | 39126 ft | 491 kts | 19° |
| 2026-05-06 10:33 | -28.96884 | 20.97441 | 39135 ft | 496 kts | 19° |
| 2026-05-06 10:33 | -28.90509 | 21.00670 | 39132 ft | 500 kts | 19° |
| 2026-05-06 10:34 | -28.84175 | 21.03874 | 39131 ft | 503 kts | 19° |
| 2026-05-06 10:34 | -28.77784 | 21.07103 | 39119 ft | 500 kts | 19° |
| 2026-05-06 10:35 | -28.71474 | 21.10291 | 39120 ft | 491 kts | 18° |
| 2026-05-06 10:35 | -28.65242 | 21.13429 | 39128 ft | 489 kts | 18° |
| 2026-05-06 10:36 | -28.59032 | 21.16550 | 39131 ft | 487 kts | 18° |
| 2026-05-06 10:36 | -28.52837 | 21.19662 | 39133 ft | 486 kts | 18° |
| 2026-05-06 10:37 | -28.46650 | 21.22767 | 39130 ft | 486 kts | 18° |
| 2026-05-06 10:37 | -28.40546 | 21.26122 | 39121 ft | 493 kts | 27° |
| 2026-05-06 10:38 | -28.37760 | 21.28423 | 39121 ft | 499 kts | 38° |
| 2026-05-06 10:38 | -28.35217 | 21.31115 | 39142 ft | 501 kts | 40° |
| 2026-05-06 10:38 | -28.30208 | 21.36655 | 39133 ft | 503 kts | 40° |
| 2026-05-06 10:39 | -28.25179 | 21.42190 | 39133 ft | 504 kts | 40° |
| 2026-05-06 10:39 | -28.20103 | 21.47685 | 39133 ft | 505 kts | 39° |
| 2026-05-06 10:40 | -28.15030 | 21.53133 | 39135 ft | 506 kts | 39° |
| 2026-05-06 10:40 | -28.09917 | 21.58616 | 39135 ft | 506 kts | 39° |
| 2026-05-06 10:41 | -28.04804 | 21.64095 | 39133 ft | 506 kts | 39° |
| 2026-05-06 10:41 | -27.99688 | 21.69573 | 39134 ft | 506 kts | 39° |
| 2026-05-06 10:42 | -27.94578 | 21.75038 | 39129 ft | 505 kts | 38° |
| 2026-05-06 10:42 | -27.89473 | 21.80489 | 39105 ft | 504 kts | 38° |
| 2026-05-06 10:43 | -27.84374 | 21.85926 | 39117 ft | 503 kts | 38° |
| 2026-05-06 10:44 | -27.76741 | 21.94052 | 39106 ft | 502 kts | 38° |
| 2026-05-06 10:44 | -27.71666 | 21.99446 | 39112 ft | 501 kts | 38° |
| 2026-05-06 10:45 | -27.66591 | 22.04831 | 39109 ft | 500 kts | 38° |
| 2026-05-06 10:45 | -27.61521 | 22.10205 | 39109 ft | 499 kts | 37° |
| 2026-05-06 10:46 | -27.56462 | 22.15563 | 39110 ft | 499 kts | 37° |
| 2026-05-06 10:46 | -27.51381 | 22.20878 | 39106 ft | 496 kts | 33° |
| 2026-05-06 10:47 | -27.45703 | 22.24918 | 39115 ft | 479 kts | 17° |
| 2026-05-06 10:47 | -27.39650 | 22.28066 | 39108 ft | 479 kts | 17° |
| 2026-05-06 10:48 | -27.33586 | 22.31204 | 39112 ft | 481 kts | 17° |
| 2026-05-06 10:48 | -27.27511 | 22.34400 | 39109 ft | 483 kts | 17° |
| 2026-05-06 10:49 | -27.21422 | 22.37630 | 39115 ft | 485 kts | 17° |
| 2026-05-06 10:49 | -27.16347 | 22.40324 | 39104 ft | 486 kts | 17° |
| 2026-05-06 10:50 | -27.09184 | 22.44121 | 39107 ft | 488 kts | 17° |
| 2026-05-06 10:50 | -27.03039 | 22.47371 | 39103 ft | 489 kts | 17° |
| 2026-05-06 10:51 | -26.97922 | 22.50074 | 39109 ft | 489 kts | 17° |
| 2026-05-06 10:51 | -26.91755 | 22.53329 | 39104 ft | 490 kts | 17° |
| 2026-05-06 10:52 | -26.85588 | 22.56579 | 39105 ft | 490 kts | 17° |
| 2026-05-06 10:52 | -26.79419 | 22.59827 | 39101 ft | 489 kts | 17° |
| 2026-05-06 10:53 | -26.72219 | 22.63612 | 39099 ft | 489 kts | 17° |
| 2026-05-06 10:53 | -26.66109 | 22.66821 | 39094 ft | 488 kts | 17° |
| 2026-05-06 10:54 | -26.59967 | 22.70041 | 39092 ft | 487 kts | 16° |
| 2026-05-06 10:54 | -26.53840 | 22.73250 | 39087 ft | 486 kts | 16° |
| 2026-05-06 10:55 | -26.47718 | 22.76453 | 39084 ft | 485 kts | 16° |
| 2026-05-06 10:55 | -26.42640 | 22.79107 | 39094 ft | 484 kts | 16° |
| 2026-05-06 10:56 | -26.36538 | 22.82291 | 39093 ft | 484 kts | 16° |
| 2026-05-06 10:56 | -26.30447 | 22.85467 | 39088 ft | 483 kts | 16° |
| 2026-05-06 10:57 | -26.23366 | 22.89154 | 39088 ft | 483 kts | 16° |
| 2026-05-06 10:57 | -26.18266 | 22.91806 | 39082 ft | 483 kts | 16° |
| 2026-05-06 10:58 | -26.12176 | 22.94970 | 39082 ft | 483 kts | 16° |
| 2026-05-06 10:58 | -26.06088 | 22.98130 | 39080 ft | 483 kts | 16° |
| 2026-05-06 10:59 | -26.00036 | 23.01266 | 39080 ft | 483 kts | 16° |
| 2026-05-06 10:59 | -25.93938 | 23.04424 | 39079 ft | 484 kts | 16° |
| 2026-05-06 11:00 | -25.87829 | 23.07583 | 39078 ft | 484 kts | 15° |
| 2026-05-06 11:00 | -25.81723 | 23.10738 | 39078 ft | 484 kts | 15° |
| 2026-05-06 11:01 | -25.75609 | 23.13893 | 39077 ft | 485 kts | 15° |
| 2026-05-06 11:01 | -25.69494 | 23.17044 | 39077 ft | 485 kts | 15° |
| 2026-05-06 11:02 | -25.63368 | 23.20198 | 39078 ft | 485 kts | 15° |
| 2026-05-06 11:02 | -25.57239 | 23.23350 | 39077 ft | 486 kts | 15° |
| 2026-05-06 11:03 | -25.51110 | 23.26499 | 39076 ft | 486 kts | 15° |
| 2026-05-06 11:03 | -25.44976 | 23.29647 | 39072 ft | 486 kts | 15° |
| 2026-05-06 11:04 | -25.38843 | 23.32791 | 39076 ft | 486 kts | 15° |
| 2026-05-06 11:04 | -25.32741 | 23.35916 | 39067 ft | 486 kts | 15° |
| 2026-05-06 11:05 | -25.26613 | 23.39067 | 39076 ft | 487 kts | 17° |
| 2026-05-06 11:05 | -25.20580 | 23.42574 | 39072 ft | 491 kts | 19° |
| 2026-05-06 11:06 | -25.14576 | 23.46182 | 39064 ft | 490 kts | 19° |
| 2026-05-06 11:06 | -25.08540 | 23.49640 | 39060 ft | 484 kts | 13° |
| 2026-05-06 11:07 | -25.02314 | 23.52307 | 39066 ft | 478 kts | 10° |
| 2026-05-06 11:07 | -24.96067 | 23.54840 | 39071 ft | 479 kts | 11° |
| 2026-05-06 11:08 | -24.89836 | 23.57449 | 39072 ft | 479 kts | 11° |
| 2026-05-06 11:08 | -24.83613 | 23.60082 | 39073 ft | 479 kts | 11° |
| 2026-05-06 11:09 | -24.77408 | 23.62811 | 39072 ft | 481 kts | 12° |
| 2026-05-06 11:09 | -24.71219 | 23.65632 | 39084 ft | 481 kts | 13° |
| 2026-05-06 11:10 | -24.65074 | 23.68420 | 39075 ft | 481 kts | 13° |
| 2026-05-06 11:10 | -24.58887 | 23.71206 | 39074 ft | 480 kts | 12° |
| 2026-05-06 11:11 | -24.52712 | 23.73979 | 39075 ft | 479 kts | 12° |
| 2026-05-06 11:11 | -24.46539 | 23.76750 | 39074 ft | 478 kts | 13° |
| 2026-05-06 11:12 | -24.40377 | 23.79510 | 39073 ft | 477 kts | 12° |
| 2026-05-06 11:12 | -24.34223 | 23.82182 | 39073 ft | 475 kts | 12° |
| 2026-05-06 11:13 | -24.28074 | 23.84824 | 39072 ft | 473 kts | 12° |
| 2026-05-06 11:13 | -24.21990 | 23.87450 | 39075 ft | 472 kts | 12° |
| 2026-05-06 11:14 | -24.15888 | 23.90090 | 39074 ft | 470 kts | 12° |
| 2026-05-06 11:14 | -24.09812 | 23.92725 | 39072 ft | 469 kts | 12° |
| 2026-05-06 11:15 | -24.03757 | 23.95347 | 39073 ft | 467 kts | 12° |
| 2026-05-06 11:15 | -23.97709 | 23.97869 | 39069 ft | 464 kts | 11° |
| 2026-05-06 11:16 | -23.91680 | 24.00382 | 39074 ft | 464 kts | 12° |
| 2026-05-06 11:16 | -23.85693 | 24.03019 | 39076 ft | 464 kts | 12° |
| 2026-05-06 11:17 | -23.79716 | 24.05646 | 39072 ft | 462 kts | 12° |
| 2026-05-06 11:17 | -23.73736 | 24.08199 | 39069 ft | 461 kts | 11° |
| 2026-05-06 11:18 | -23.67755 | 24.10701 | 39068 ft | 460 kts | 11° |
| 2026-05-06 11:18 | -23.61786 | 24.13209 | 39066 ft | 460 kts | 11° |
| 2026-05-06 11:19 | -23.55822 | 24.15721 | 39065 ft | 459 kts | 11° |
| 2026-05-06 11:19 | -23.49852 | 24.18238 | 39064 ft | 459 kts | 11° |
| 2026-05-06 11:20 | -23.43893 | 24.20750 | 39064 ft | 459 kts | 11° |
| 2026-05-06 11:20 | -23.37969 | 24.23244 | 39061 ft | 459 kts | 11° |
| 2026-05-06 11:21 | -23.32010 | 24.25750 | 39060 ft | 459 kts | 11° |
| 2026-05-06 11:21 | -23.26049 | 24.28254 | 39063 ft | 459 kts | 11° |
| 2026-05-06 11:22 | -23.20084 | 24.30758 | 39059 ft | 460 kts | 11° |
| 2026-05-06 11:22 | -23.14114 | 24.33261 | 39063 ft | 460 kts | 11° |
| 2026-05-06 11:23 | -23.08136 | 24.35765 | 39061 ft | 460 kts | 11° |
| 2026-05-06 11:23 | -23.02159 | 24.38268 | 39048 ft | 460 kts | 11° |
| 2026-05-06 11:24 | -22.96186 | 24.40766 | 39054 ft | 460 kts | 11° |
| 2026-05-06 11:24 | -22.90218 | 24.43259 | 39049 ft | 459 kts | 11° |
| 2026-05-06 11:25 | -22.84258 | 24.45747 | 39054 ft | 459 kts | 11° |
| 2026-05-06 11:25 | -22.78304 | 24.48231 | 39048 ft | 458 kts | 11° |
| 2026-05-06 11:26 | -22.72349 | 24.50716 | 39048 ft | 458 kts | 11° |
| 2026-05-06 11:26 | -22.66406 | 24.53232 | 39046 ft | 459 kts | 11° |
| 2026-05-06 11:27 | -22.60455 | 24.55757 | 39038 ft | 459 kts | 12° |
| 2026-05-06 11:27 | -22.54514 | 24.58271 | 39037 ft | 459 kts | 12° |
| 2026-05-06 11:28 | -22.48608 | 24.60766 | 39038 ft | 459 kts | 12° |
| 2026-05-06 11:28 | -22.42658 | 24.63278 | 39034 ft | 459 kts | 12° |
| 2026-05-06 11:29 | -22.36706 | 24.65762 | 39033 ft | 458 kts | 11° |
| 2026-05-06 11:29 | -22.30740 | 24.68172 | 39033 ft | 458 kts | 11° |
| 2026-05-06 11:30 | -22.25746 | 24.70183 | 39026 ft | 458 kts | 11° |
| 2026-05-06 11:30 | -22.18813 | 24.72984 | 39029 ft | 457 kts | 11° |
| 2026-05-06 11:31 | -22.12851 | 24.75396 | 39024 ft | 457 kts | 11° |
| 2026-05-06 11:31 | -22.06899 | 24.77803 | 39021 ft | 457 kts | 11° |
| 2026-05-06 11:32 | -22.00950 | 24.80206 | 39014 ft | 456 kts | 11° |
| 2026-05-06 11:32 | -21.95016 | 24.82601 | 39011 ft | 455 kts | 11° |
| 2026-05-06 11:33 | -21.89093 | 24.85003 | 39010 ft | 455 kts | 12° |
| 2026-05-06 11:33 | -21.83187 | 24.87493 | 39014 ft | 455 kts | 13° |
| 2026-05-06 11:34 | -21.77337 | 24.89972 | 39012 ft | 454 kts | 13° |
| 2026-05-06 11:34 | -21.71455 | 24.92450 | 39007 ft | 454 kts | 12° |
| 2026-05-06 11:35 | -21.65572 | 24.94921 | 39000 ft | 453 kts | 13° |
| 2026-05-06 11:35 | -21.59700 | 24.97385 | 39002 ft | 453 kts | 13° |
| 2026-05-06 11:36 | -21.53830 | 24.99847 | 38999 ft | 453 kts | 13° |
| 2026-05-06 11:36 | -21.47950 | 25.02312 | 39001 ft | 453 kts | 13° |
| 2026-05-06 11:37 | -21.42064 | 25.04777 | 38998 ft | 454 kts | 13° |
| 2026-05-06 11:37 | -21.36176 | 25.07243 | 38997 ft | 455 kts | 13° |
| 2026-05-06 11:38 | -21.30271 | 25.09709 | 38992 ft | 456 kts | 13° |
| 2026-05-06 11:38 | -21.24342 | 25.12133 | 38994 ft | 456 kts | 12° |
| 2026-05-06 11:39 | -21.19406 | 25.14138 | 38990 ft | 457 kts | 12° |
| 2026-05-06 11:39 | -21.13468 | 25.16556 | 38994 ft | 457 kts | 12° |
| 2026-05-06 11:40 | -21.06553 | 25.19375 | 38992 ft | 457 kts | 13° |
| 2026-05-06 11:40 | -21.01569 | 25.21404 | 38993 ft | 457 kts | 13° |
| 2026-05-06 11:41 | -20.95628 | 25.23864 | 38996 ft | 458 kts | 13° |
| 2026-05-06 11:41 | -20.88742 | 25.26772 | 38999 ft | 457 kts | 13° |
| 2026-05-06 11:42 | -20.83825 | 25.28844 | 39002 ft | 457 kts | 13° |
| 2026-05-06 11:42 | -20.76919 | 25.31743 | 39002 ft | 455 kts | 13° |
| 2026-05-06 11:43 | -20.72018 | 25.33797 | 39007 ft | 455 kts | 13° |
| 2026-05-06 11:43 | -20.66135 | 25.36261 | 39013 ft | 454 kts | 13° |
| 2026-05-06 11:44 | -20.57336 | 25.39954 | 39021 ft | 453 kts | 15° |
| 2026-05-06 11:44 | -20.51665 | 25.43036 | 39020 ft | 459 kts | 21° |
| 2026-05-06 11:45 | -20.46082 | 25.46370 | 39024 ft | 459 kts | 21° |
| 2026-05-06 11:45 | -20.40544 | 25.49646 | 39022 ft | 458 kts | 21° |
| 2026-05-06 11:46 | -20.34956 | 25.52897 | 39024 ft | 457 kts | 21° |
| 2026-05-06 11:46 | -20.29365 | 25.56130 | 39024 ft | 457 kts | 21° |
| 2026-05-06 11:47 | -20.23777 | 25.59357 | 39023 ft | 456 kts | 21° |
| 2026-05-06 11:47 | -20.18220 | 25.62569 | 38858 ft | 449 kts | 21° |
| 2026-05-06 11:48 | -20.15484 | 25.64152 | 38351 ft | 447 kts | 21° |
| 2026-05-06 11:48 | -20.12743 | 25.65732 | 37601 ft | 450 kts | 21° |
| 2026-05-06 11:48 | -20.09961 | 25.67330 | 36758 ft | 456 kts | 21° |
| 2026-05-06 11:48 | -20.07152 | 25.68946 | 35977 ft | 461 kts | 21° |
| 2026-05-06 11:49 | -20.04321 | 25.70576 | 35254 ft | 465 kts | 21° |
| 2026-05-06 11:49 | -20.01470 | 25.72220 | 34600 ft | 467 kts | 22° |
| 2026-05-06 11:49 | -19.98650 | 25.73846 | 33997 ft | 468 kts | 22° |
| 2026-05-06 11:49 | -19.95787 | 25.75497 | 33261 ft | 469 kts | 22° |
| 2026-05-06 11:50 | -19.92913 | 25.77152 | 32511 ft | 470 kts | 22° |
| 2026-05-06 11:50 | -19.90027 | 25.78812 | 31736 ft | 473 kts | 22° |
| 2026-05-06 11:50 | -19.87131 | 25.80477 | 30978 ft | 475 kts | 22° |
| 2026-05-06 11:50 | -19.84195 | 25.82084 | 30216 ft | 475 kts | 20° |
| 2026-05-06 11:51 | -19.81211 | 25.83594 | 29325 ft | 475 kts | 19° |
| 2026-05-06 11:51 | -19.78203 | 25.85061 | 28422 ft | 476 kts | 19° |
| 2026-05-06 11:51 | -19.75183 | 25.86522 | 27479 ft | 477 kts | 19° |
| 2026-05-06 11:51 | -19.72159 | 25.87992 | 26533 ft | 479 kts | 19° |
| 2026-05-06 11:52 | -19.69128 | 25.89478 | 25583 ft | 481 kts | 19° |
| 2026-05-06 11:52 | -19.66102 | 25.90973 | 24834 ft | 478 kts | 20° |
| 2026-05-06 11:52 | -19.63112 | 25.92457 | 24252 ft | 471 kts | 20° |
| 2026-05-06 11:52 | -19.60167 | 25.93923 | 23669 ft | 465 kts | 20° |
| 2026-05-06 11:53 | -19.57249 | 25.95372 | 22928 ft | 460 kts | 20° |
| 2026-05-06 11:53 | -19.54353 | 25.96807 | 22181 ft | 456 kts | 20° |
| 2026-05-06 11:53 | -19.51489 | 25.98225 | 21469 ft | 452 kts | 20° |
| 2026-05-06 11:53 | -19.48652 | 25.99629 | 20783 ft | 448 kts | 20° |
| 2026-05-06 11:54 | -19.45838 | 26.01021 | 20114 ft | 444 kts | 20° |
| 2026-05-06 11:54 | -19.43052 | 26.02398 | 19443 ft | 441 kts | 20° |
| 2026-05-06 11:54 | -19.40284 | 26.03766 | 18794 ft | 437 kts | 20° |
| 2026-05-06 11:54 | -19.37538 | 26.05123 | 18159 ft | 434 kts | 20° |
| 2026-05-06 11:55 | -19.34852 | 26.06449 | 17480 ft | 429 kts | 20° |
| 2026-05-06 11:55 | -19.32051 | 26.07542 | 16856 ft | 418 kts | 9° |
| 2026-05-06 11:55 | -19.29229 | 26.08089 | 16259 ft | 407 kts | 1° |
| 2026-05-06 11:55 | -19.26474 | 26.08182 | 15792 ft | 395 kts | 352° |
| 2026-05-06 11:56 | -19.23774 | 26.07930 | 15465 ft | 385 kts | 350° |
| 2026-05-06 11:56 | -19.21115 | 26.07668 | 15147 ft | 386 kts | 350° |
| 2026-05-06 11:56 | -19.18421 | 26.07404 | 14823 ft | 391 kts | 350° |
| 2026-05-06 11:56 | -19.15712 | 26.07145 | 14498 ft | 390 kts | 351° |
| 2026-05-06 11:57 | -19.13016 | 26.06894 | 14182 ft | 387 kts | 351° |
| 2026-05-06 11:57 | -19.10347 | 26.06649 | 13866 ft | 384 kts | 351° |
| 2026-05-06 11:57 | -19.07693 | 26.06407 | 13510 ft | 382 kts | 351° |
| 2026-05-06 11:57 | -19.05053 | 26.06167 | 13159 ft | 380 kts | 351° |
| 2026-05-06 11:58 | -19.02427 | 26.05929 | 12805 ft | 378 kts | 351° |
| 2026-05-06 11:58 | -18.99811 | 26.05692 | 12503 ft | 375 kts | 351° |
| 2026-05-06 11:58 | -18.97223 | 26.05458 | 12251 ft | 372 kts | 351° |
| 2026-05-06 11:58 | -18.94655 | 26.05226 | 12004 ft | 370 kts | 351° |
| 2026-05-06 11:59 | -18.92094 | 26.04993 | 11764 ft | 369 kts | 351° |
| 2026-05-06 11:59 | -18.89540 | 26.04761 | 11523 ft | 368 kts | 351° |
| 2026-05-06 11:59 | -18.86984 | 26.04528 | 11287 ft | 369 kts | 351° |
| 2026-05-06 11:59 | -18.84427 | 26.04296 | 11042 ft | 369 kts | 351° |
| 2026-05-06 12:00 | -18.81868 | 26.04064 | 10819 ft | 369 kts | 351° |
| 2026-05-06 12:00 | -18.79314 | 26.03833 | 10576 ft | 368 kts | 351° |
| 2026-05-06 12:00 | -18.76794 | 26.03605 | 10352 ft | 367 kts | 351° |
| 2026-05-06 12:00 | -18.74250 | 26.03375 | 10118 ft | 366 kts | 351° |
| 2026-05-06 12:01 | -18.71712 | 26.03146 | 9885 ft | 365 kts | 351° |
| 2026-05-06 12:01 | -18.69207 | 26.02920 | 9628 ft | 357 kts | 351° |
| 2026-05-06 12:01 | -18.66772 | 26.02703 | 9368 ft | 345 kts | 351° |
| 2026-05-06 12:01 | -18.64416 | 26.02492 | 9109 ft | 334 kts | 351° |
| 2026-05-06 12:02 | -18.62163 | 26.02291 | 8833 ft | 315 kts | 351° |
| 2026-05-06 12:02 | -18.60035 | 26.02101 | 8579 ft | 299 kts | 351° |
| 2026-05-06 12:02 | -18.58009 | 26.01919 | 8332 ft | 284 kts | 351° |
| 2026-05-06 12:02 | -18.56083 | 26.01744 | 8136 ft | 274 kts | 351° |
| 2026-05-06 12:03 | -18.54200 | 26.01569 | 7940 ft | 269 kts | 351° |
| 2026-05-06 12:03 | -18.52342 | 26.01400 | 7765 ft | 268 kts | 352° |
| 2026-05-06 12:03 | -18.50488 | 26.01235 | 7581 ft | 267 kts | 351° |
| 2026-05-06 12:03 | -18.48635 | 26.01067 | 7404 ft | 268 kts | 351° |
| 2026-05-06 12:04 | -18.46803 | 26.00901 | 7218 ft | 268 kts | 351° |
| 2026-05-06 12:04 | -18.44955 | 26.00732 | 7041 ft | 266 kts | 352° |
| 2026-05-06 12:04 | -18.43119 | 26.00565 | 6875 ft | 264 kts | 352° |
| 2026-05-06 12:04 | -18.41304 | 26.00397 | 6738 ft | 261 kts | 351° |
| 2026-05-06 12:05 | -18.39497 | 26.00234 | 6629 ft | 262 kts | 352° |
| 2026-05-06 12:05 | -18.37676 | 26.00070 | 6517 ft | 263 kts | 352° |
| 2026-05-06 12:05 | -18.35840 | 25.99905 | 6409 ft | 266 kts | 352° |
| 2026-05-06 12:05 | -18.33986 | 25.99740 | 6302 ft | 269 kts | 351° |
| 2026-05-06 12:06 | -18.32118 | 25.99573 | 6155 ft | 269 kts | 352° |
| 2026-05-06 12:06 | -18.30261 | 25.99407 | 6040 ft | 267 kts | 352° |
| 2026-05-06 12:06 | -18.28426 | 25.99241 | 5882 ft | 262 kts | 352° |
| 2026-05-06 12:06 | -18.26649 | 25.99082 | 5839 ft | 250 kts | 353° |
| 2026-05-06 12:07 | -18.24938 | 25.98923 | 5614 ft | 244 kts | 353° |
| 2026-05-06 12:07 | -18.23280 | 25.98775 | 5394 ft | 233 kts | 352° |
| 2026-05-06 12:07 | -18.21686 | 25.98632 | 5158 ft | 227 kts | 352° |
| 2026-05-06 12:07 | -18.20145 | 25.98498 | 5019 ft | 216 kts | 352° |
| 2026-05-06 12:08 | -18.18725 | 25.98322 | 4969 ft | 196 kts | 339° |
| 2026-05-06 12:08 | -18.17567 | 25.97729 | 5003 ft | 180 kts | 328° |
| 2026-05-06 12:08 | -18.16511 | 25.97094 | 4984 ft | 166 kts | 321° |
| 2026-05-06 12:08 | -18.15621 | 25.96408 | 5013 ft | 163 kts | 319° |
| 2026-05-06 12:09 | -18.14740 | 25.95620 | 4977 ft | 164 kts | 315° |
| 2026-05-06 12:09 | -18.13953 | 25.94850 | 4961 ft | 149 kts | 307° |
| 2026-05-06 12:09 | -18.13322 | 25.94005 | 5017 ft | 151 kts | 297° |
| 2026-05-06 12:09 | -18.12874 | 25.93016 | 5032 ft | 147 kts | 284° |
| 2026-05-06 12:10 | -18.12342 | 25.92049 | 4914 ft | 154 kts | 297° |
| 2026-05-06 12:10 | -18.12035 | 25.91004 | 4840 ft | 148 kts | 276° |
| 2026-05-06 12:10 | -18.11815 | 25.89939 | 4640 ft | 150 kts | 283° |
| 2026-05-06 12:10 | -18.11502 | 25.88887 | 4341 ft | 154 kts | 288° |
| 2026-05-06 12:11 | -18.11164 | 25.87830 | 4047 ft | 151 kts | 285° |
| 2026-05-06 12:11 | -18.10796 | 25.86781 | 3828 ft | 153 kts | 286° |
| 2026-05-06 12:11 | -18.10454 | 25.85736 | 3587 ft | 150 kts | 284° |
| 2026-05-06 12:11 | -18.10115 | 25.84739 | 3511 ft | 134 kts | 287° |
| 2026-05-06 12:12 | -18.09822 | 25.83917 | 3485 ft | 101 kts | 288° |
| 2026-05-06 12:12 | -18.09648 | 25.83424 | 3483 ft | 27 kts | 290° |
| 2026-05-06 12:12 | -18.09612 | 25.83323 | 3479 ft | 16 kts | 290° |
| 2026-05-06 12:12 | -18.09559 | 25.83231 | 3479 ft | 12 kts | 349° |
| 2026-05-06 12:13 | -18.09480 | 25.83260 | 3479 ft | 12 kts | 18° |
| 2026-05-06 12:13 | -18.09411 | 25.83300 | 3483 ft | 12 kts | 66° |
| 2026-05-06 12:13 | -18.09429 | 25.83380 | 3481 ft | 12 kts | 109° |
| 2026-05-06 12:13 | -18.09460 | 25.83468 | 3483 ft | 15 kts | 109° |
| 2026-05-06 12:14 | -18.09496 | 25.83569 | 3485 ft | 15 kts | 111° |
| 2026-05-06 12:14 | -18.09532 | 25.83678 | 3487 ft | 16 kts | 107° |
| 2026-05-06 12:14 | -18.09570 | 25.83783 | 3487 ft | 15 kts | 108° |
| 2026-05-06 12:14 | -18.09605 | 25.83884 | 3495 ft | 14 kts | 111° |
| 2026-05-06 12:15 | -18.09639 | 25.83983 | 3492 ft | 16 kts | 110° |
| 2026-05-06 12:15 | -18.09691 | 25.84133 | 3488 ft | 25 kts | 113° |
| 2026-05-06 12:15 | -18.09750 | 25.84296 | 3486 ft | 23 kts | 110° |
| 2026-05-06 12:15 | -18.09804 | 25.84452 | 3484 ft | 22 kts | 109° |
| 2026-05-06 12:16 | -18.09852 | 25.84599 | 3486 ft | 17 kts | 101° |
| 2026-05-06 12:16 | -18.09819 | 25.84648 | 3489 ft | 8 kts | 21° |
| 2026-05-06 12:16 | -18.09765 | 25.84668 | 3502 ft | 9 kts | 20° |
| 2026-05-06 12:16 | -18.09705 | 25.84717 | 3500 ft | 12 kts | 87° |
| 2026-05-06 12:17 | -18.09733 | 25.84802 | 3501 ft | 12 kts | 109° |
| 2026-05-06 12:17 | -18.09770 | 25.84904 | 3497 ft | 16 kts | 110° |
| 2026-05-06 12:17 | -18.09783 | 25.85016 | 3501 ft | 7 kts | 90° |
| 2026-05-06 12:17 | -18.09787 | 25.85068 | 3504 ft | 7 kts | 111° |
| 2026-05-06 12:18 | -18.09810 | 25.85119 | 3500 ft | 9 kts | 114° |
| 2026-05-06 12:18 | -18.09835 | 25.85185 | 3501 ft | 10 kts | 108° |
| 2026-05-06 12:18 | -18.09820 | 25.85214 | 3504 ft | 3 kts | 17° |
| 2026-05-06 12:18 | -18.09800 | 25.85221 | 3497 ft | 3 kts | 17° |
| 2026-05-06 12:19 | -18.09780 | 25.85229 | 3505 ft | 3 kts | 20° |
| 2026-05-06 12:19 | -18.09770 | 25.85233 | 3499 ft | 1 kts | 20° |
| 2026-05-06 12:19 | -18.09769 | 25.85233 | 3499 ft | 0 kts | 20° |